Time;durP1;ratioP1;P1;durP2;ratioP2;P2;SDS_P1;SDS_P2;PMS_P1;PMS_P2;Temp;Humidity;BMP_temperature;BMP_pressure;BME280_temperature;BME280_humidity;BME280_pressure;Samples;Min_cycle;Max_cycle;Signal;HPM_P1;HPM_P2
2022/06/20 00:00:53;;;;;;;12.65;3.67;;;26.00;90.70;;;;;;5052177;28;20436;-88
2022/06/20 00:03:26;;;;;;;8.20;3.85;;;26.00;90.80;;;;;;5052304;28;20060;-88
2022/06/20 00:05:52;;;;;;;13.48;3.83;;;25.90;90.80;;;;;;5052194;28;20111;-88
2022/06/20 00:08:18;;;;;;;10.88;3.70;;;25.90;91.10;;;;;;5052314;28;20399;-89
2022/06/20 00:10:45;;;;;;;16.45;4.30;;;25.90;91.20;;;;;;5052093;28;20108;-88
2022/06/20 00:13:22;;;;;;;12.85;3.88;;;25.90;91.00;;;;;;5052015;28;20025;-88
2022/06/20 00:15:49;;;;;;;9.73;4.25;;;25.90;91.00;;;;;;5051990;28;20498;-88
2022/06/20 00:18:15;;;;;;;7.60;4.03;;;25.90;91.30;;;;;;5051863;28;20476;-89
2022/06/20 00:20:41;;;;;;;9.73;3.85;;;25.90;91.00;;;;;;5052015;28;20112;-88
2022/06/20 00:23:07;;;;;;;10.55;3.90;;;25.90;91.00;;;;;;5053490;28;20047;-88
2022/06/20 00:25:35;;;;;;;11.18;4.13;;;25.90;90.90;;;;;;5052705;28;20028;-88
2022/06/20 00:28:00;;;;;;;10.98;3.70;;;25.80;91.00;;;;;;5051850;28;20036;-88
2022/06/20 00:30:26;;;;;;;6.88;3.63;;;25.90;91.10;;;;;;5051979;28;20037;-88
2022/06/20 00:32:52;;;;;;;9.23;4.30;;;25.90;91.00;;;;;;5054978;28;20115;-88
2022/06/20 00:35:19;;;;;;;6.30;4.03;;;25.80;91.00;;;;;;5055966;28;20040;-88
2022/06/20 00:37:45;;;;;;;10.27;4.35;;;25.80;91.00;;;;;;5055907;28;20548;-90
2022/06/20 00:40:23;;;;;;;9.40;4.43;;;25.80;91.40;;;;;;5056675;28;20029;-93
2022/06/20 00:42:51;;;;;;;17.15;5.25;;;25.80;92.30;;;;;;5057476;28;20021;-94
2022/06/20 00:45:18;;;;;;;20.42;4.85;;;25.80;93.10;;;;;;5057345;28;20029;-93
2022/06/20 00:47:46;;;;;;;9.23;4.18;;;25.80;93.50;;;;;;5056776;28;20477;-93
2022/06/20 00:50:17;;;;;;;14.30;4.60;;;25.80;93.00;;;;;;5058244;28;20025;-93
2022/06/20 00:52:59;;;;;;;9.95;4.57;;;25.80;93.80;;;;;;5056655;28;20099;-92
2022/06/20 00:55:38;;;;;;;14.05;4.75;;;25.70;93.60;;;;;;5057700;28;20025;-92
2022/06/20 00:58:28;;;;;;;9.70;4.95;;;25.70;94.40;;;;;;5057869;28;20025;-92
2022/06/20 01:00:55;;;;;;;13.52;4.40;;;25.70;94.00;;;;;;5057170;28;20021;-91
2022/06/20 01:03:24;;;;;;;14.85;5.22;;;25.70;94.20;;;;;;5056343;28;20025;-91
2022/06/20 01:05:55;;;;;;;15.93;4.32;;;25.70;93.90;;;;;;5056066;28;20133;-92
2022/06/20 01:08:22;;;;;;;12.57;4.72;;;25.70;94.40;;;;;;5056068;28;20110;-91
2022/06/20 01:11:05;;;;;;;16.90;4.95;;;25.70;95.00;;;;;;5055843;28;20062;-91
2022/06/20 01:13:32;;;;;;;17.52;4.68;;;25.70;94.90;;;;;;5056170;28;20106;-92
2022/06/20 01:16:13;;;;;;;17.73;5.00;;;25.60;95.10;;;;;;5055802;28;20029;-91
2022/06/20 01:18:42;;;;;;;16.50;4.78;;;25.60;95.20;;;;;;5055690;28;20029;-91
2022/06/20 01:21:17;;;;;;;12.02;4.68;;;25.60;95.40;;;;;;5055736;28;20021;-91
2022/06/20 01:23:52;;;;;;;15.68;4.85;;;25.60;95.50;;;;;;5055734;28;20021;-91
2022/06/20 01:26:28;;;;;;;19.85;4.95;;;25.60;95.60;;;;;;5055474;28;20062;-91
2022/06/20 01:29:00;;;;;;;12.52;4.70;;;25.60;95.50;;;;;;5055375;28;20083;-91
2022/06/20 01:31:29;;;;;;;15.13;4.70;;;25.60;95.30;;;;;;5056722;28;20383;-90
2022/06/20 01:33:58;;;;;;;12.93;4.20;;;25.60;95.50;;;;;;5056625;28;20066;-91
2022/06/20 01:39:13;;;;;;;16.00;4.90;;;25.60;95.90;;;;;;5057007;28;20036;-91
2022/06/20 01:44:23;;;;;;;13.90;4.82;;;25.50;95.70;;;;;;5056088;28;20032;-91
2022/06/20 01:46:49;;;;;;;15.27;4.38;;;25.50;95.90;;;;;;5056474;28;20033;-91
2022/06/20 01:49:22;;;;;;;14.32;4.15;;;25.50;95.90;;;;;;5056193;28;20025;-91
2022/06/20 01:51:58;;;;;;;14.38;4.57;;;25.50;96.00;;;;;;5054844;28;20031;-91
2022/06/20 01:54:27;;;;;;;18.27;5.10;;;25.50;96.20;;;;;;5055683;28;20021;-90
2022/06/20 01:56:53;;;;;;;14.20;4.60;;;25.50;96.10;;;;;;5054636;28;20020;-91
2022/06/20 01:59:38;;;;;;;14.60;5.20;;;25.50;96.40;;;;;;5056000;28;20031;-91
2022/06/20 02:02:05;;;;;;;13.90;4.70;;;25.50;96.40;;;;;;5054594;28;20567;-91
2022/06/20 02:04:33;;;;;;;14.93;4.53;;;25.50;96.40;;;;;;5054582;28;20035;-91
2022/06/20 02:07:01;;;;;;;13.65;5.00;;;25.50;96.40;;;;;;5054674;28;20479;-91
2022/06/20 02:09:27;;;;;;;12.27;4.60;;;25.50;96.40;;;;;;5054451;28;20029;-91
2022/06/20 02:11:53;;;;;;;16.70;4.60;;;25.50;96.50;;;;;;5054517;28;20063;-91
2022/06/20 02:14:44;;;;;;;11.70;4.55;;;25.50;96.60;;;;;;5054721;28;20143;-91
2022/06/20 02:17:19;;;;;;;14.45;4.60;;;25.50;96.50;;;;;;5054254;28;20024;-90
2022/06/20 02:19:53;;;;;;;12.07;4.20;;;25.50;96.60;;;;;;5054278;28;20021;-91
2022/06/20 02:22:20;;;;;;;13.32;4.55;;;25.40;96.50;;;;;;5054473;28;20025;-91
2022/06/20 02:24:50;;;;;;;14.38;4.47;;;25.50;96.50;;;;;;5054106;28;20025;-91
2022/06/20 02:27:39;;;;;;;16.80;4.85;;;25.40;96.60;;;;;;5054196;28;20495;-90
2022/06/20 02:30:07;;;;;;;15.13;4.30;;;25.40;96.60;;;;;;5054227;28;20025;-90
2022/06/20 02:32:37;;;;;;;11.07;4.47;;;25.40;96.70;;;;;;5053942;28;20395;-90
2022/06/20 02:35:06;;;;;;;13.57;5.25;;;25.40;96.70;;;;;;5055379;28;20056;-90
2022/06/20 02:37:34;;;;;;;10.05;4.03;;;25.40;96.60;;;;;;5055235;28;20506;-91
2022/06/20 02:40:03;;;;;;;12.77;4.35;;;25.40;96.80;;;;;;5054157;28;20144;-91
2022/06/20 02:42:38;;;;;;;15.93;4.38;;;25.40;96.70;;;;;;5054272;28;20021;-91
2022/06/20 02:45:10;;;;;;;13.73;4.55;;;25.40;96.40;;;;;;5053857;28;20384;-91
2022/06/20 02:47:40;;;;;;;8.68;4.15;;;25.40;96.60;;;;;;5053790;28;20472;-91
2022/06/20 02:50:06;;;;;;;14.90;4.28;;;25.40;96.60;;;;;;5053843;28;20020;-90
2022/06/20 02:52:50;;;;;;;11.75;3.88;;;25.40;96.40;;;;;;5053686;28;20534;-90
2022/06/20 02:55:18;;;;;;;18.08;4.35;;;25.40;96.40;;;;;;5055135;28;20479;-90
2022/06/20 02:57:51;;;;;;;13.10;4.00;;;25.40;96.30;;;;;;5053451;28;20033;-90
2022/06/20 03:00:26;;;;;;;13.40;4.15;;;25.30;96.30;;;;;;5053270;28;20416;-90
2022/06/20 03:02:57;;;;;;;17.48;4.50;;;25.30;96.10;;;;;;5053049;28;20041;-89
2022/06/20 03:05:23;;;;;;;12.70;3.90;;;25.30;96.30;;;;;;5054502;28;20048;-90
2022/06/20 03:07:51;;;;;;;13.57;3.70;;;25.30;96.40;;;;;;5053174;28;20074;-90
2022/06/20 03:10:22;;;;;;;13.23;4.07;;;25.30;96.50;;;;;;5054448;28;20051;-90
2022/06/20 03:12:48;;;;;;;11.82;4.07;;;25.30;96.40;;;;;;5053136;28;20566;-90
2022/06/20 03:15:15;;;;;;;16.17;4.82;;;25.30;96.10;;;;;;5052979;28;20053;-89
2022/06/20 03:17:45;;;;;;;14.55;4.05;;;25.30;96.30;;;;;;5052860;28;20481;-90
2022/06/20 03:20:13;;;;;;;14.95;4.10;;;25.30;96.10;;;;;;5053745;28;20480;-90
2022/06/20 03:22:51;;;;;;;12.57;4.40;;;25.30;95.80;;;;;;5052812;28;20028;-89
2022/06/20 03:25:18;;;;;;;10.18;4.00;;;25.30;95.80;;;;;;5052734;28;20025;-90
2022/06/20 03:27:44;;;;;;;9.07;3.97;;;25.30;96.10;;;;;;5052729;28;20112;-89
2022/06/20 03:30:25;;;;;;;21.08;4.68;;;25.30;96.10;;;;;;5052687;28;20472;-90
2022/06/20 03:32:51;;;;;;;13.02;3.78;;;25.30;96.10;;;;;;5052570;28;20399;-89
2022/06/20 03:35:17;;;;;;;15.80;4.03;;;25.30;96.30;;;;;;5052602;28;20483;-89
2022/06/20 03:37:43;;;;;;;10.98;4.20;;;25.20;96.20;;;;;;5052693;28;20035;-89
2022/06/20 03:40:09;;;;;;;13.75;4.78;;;25.20;96.30;;;;;;5052414;28;20120;-89
2022/06/20 03:42:35;;;;;;;11.63;4.20;;;25.20;96.50;;;;;;5052371;28;20028;-89
2022/06/20 03:45:05;;;;;;;14.80;4.25;;;25.20;96.50;;;;;;5052381;28;20104;-89
2022/06/20 03:47:39;;;;;;;10.65;3.85;;;25.20;96.40;;;;;;5052299;28;20056;-89
2022/06/20 03:50:10;;;;;;;9.65;3.60;;;25.20;96.60;;;;;;5053273;28;20025;-89
2022/06/20 03:52:51;;;;;;;12.77;4.20;;;25.20;96.40;;;;;;5052226;28;20116;-90
2022/06/20 03:55:37;;;;;;;8.73;3.70;;;25.20;96.40;;;;;;5053470;28;20055;-89
2022/06/20 03:58:13;;;;;;;13.13;4.13;;;25.20;96.60;;;;;;5052040;28;20028;-89
2022/06/20 04:00:48;;;;;;;10.05;3.97;;;25.20;96.90;;;;;;5052065;28;20078;-90
2022/06/20 04:03:38;;;;;;;16.05;4.32;;;25.20;96.70;;;;;;5052307;28;20158;-89
2022/06/20 04:06:10;;;;;;;15.23;4.28;;;25.10;97.10;;;;;;5053013;28;20484;-89
2022/06/20 04:11:36;;;;;;;14.43;3.67;;;25.10;97.50;;;;;;5053306;28;20067;-89
2022/06/20 04:14:18;;;;;;;12.57;4.35;;;25.10;97.30;;;;;;5053249;28;20480;-89
2022/06/20 04:16:50;;;;;;;12.32;4.20;;;25.10;97.40;;;;;;5053820;28;20480;-90
2022/06/20 04:19:26;;;;;;;11.68;4.25;;;25.10;97.30;;;;;;5052372;28;20021;-90
2022/06/20 04:22:03;;;;;;;12.75;3.95;;;25.10;97.30;;;;;;5052385;28;20048;-89
2022/06/20 04:24:39;;;;;;;11.73;4.60;;;25.10;97.70;;;;;;5052123;28;20546;-89
2022/06/20 04:27:29;;;;;;;13.07;4.25;;;25.00;97.30;;;;;;5052307;28;20032;-89
2022/06/20 04:30:06;;;;;;;12.88;4.25;;;25.10;97.40;;;;;;5052131;28;20066;-89
2022/06/20 04:32:34;;;;;;;15.43;4.72;;;25.10;97.50;;;;;;5051856;28;20025;-89
2022/06/20 04:35:07;;;;;;;14.02;4.40;;;25.10;97.40;;;;;;5051944;28;20373;-89
2022/06/20 04:37:43;;;;;;;13.30;4.13;;;25.00;97.30;;;;;;5053142;28;20021;-89
2022/06/20 04:40:37;;;;;;;14.27;4.47;;;25.00;97.30;;;;;;5053102;28;20071;-89
2022/06/20 04:43:14;;;;;;;15.63;4.10;;;25.00;97.30;;;;;;5049081;28;20507;-89
2022/06/20 04:45:42;;;;;;;13.80;4.63;;;25.00;97.30;;;;;;5051893;28;20021;-89
2022/06/20 04:48:13;;;;;;;11.90;4.00;;;25.00;97.20;;;;;;5051848;28;20029;-89
2022/06/20 04:50:42;;;;;;;12.23;4.70;;;25.00;97.10;;;;;;5051821;28;20487;-89
2022/06/20 04:53:12;;;;;;;12.70;3.80;;;25.00;97.20;;;;;;5051697;28;20025;-88
2022/06/20 04:55:43;;;;;;;16.88;4.68;;;25.00;97.10;;;;;;5053285;28;20021;-88
2022/06/20 04:58:14;;;;;;;11.85;4.13;;;25.00;97.10;;;;;;5051555;28;20480;-89
2022/06/20 05:00:43;;;;;;;11.52;4.05;;;25.00;97.00;;;;;;5051395;28;20043;-88
2022/06/20 05:03:14;;;;;;;15.52;4.07;;;25.00;97.10;;;;;;5051634;28;20037;-89
2022/06/20 05:05:43;;;;;;;13.45;4.20;;;25.00;97.00;;;;;;5051769;28;20420;-89
2022/06/20 05:08:13;;;;;;;16.02;4.50;;;25.00;97.20;;;;;;5051594;28;20033;-89
2022/06/20 05:10:46;;;;;;;9.98;3.90;;;25.00;97.20;;;;;;5052851;28;20057;-89
2022/06/20 05:13:16;;;;;;;10.35;4.00;;;25.00;97.10;;;;;;5051655;28;20086;-89
2022/06/20 05:15:48;;;;;;;8.60;3.67;;;25.00;97.20;;;;;;5052083;28;20025;-88
2022/06/20 05:18:32;;;;;;;11.52;4.10;;;25.00;97.20;;;;;;5052926;28;20021;-89
2022/06/20 05:21:12;;;;;;;;;;;25.00;97.20;;;;;;5055791;28;20024;-88
2022/06/20 05:23:48;;;;;;;14.32;3.90;;;25.00;97.20;;;;;;5055066;28;20327;-88
2022/06/20 05:26:18;;;;;;;12.82;3.75;;;24.90;97.10;;;;;;5056538;28;20043;-89
2022/06/20 05:28:47;;;;;;;15.57;4.30;;;24.90;97.10;;;;;;5055140;28;20119;-89
2022/06/20 05:31:22;;;;;;;9.02;3.92;;;25.00;97.10;;;;;;5055130;28;20025;-88
2022/06/20 05:34:06;;;;;;;11.48;4.07;;;24.90;97.10;;;;;;5055101;28;20535;-88
2022/06/20 05:36:50;;;;;;;12.00;3.60;;;24.90;97.10;;;;;;5054994;28;20055;-89
2022/06/20 05:39:21;;;;;;;14.30;4.03;;;24.90;97.10;;;;;;5055111;28;20119;-88
2022/06/20 05:41:48;;;;;;;10.93;3.85;;;24.90;97.00;;;;;;5056237;28;20025;-88
2022/06/20 05:44:14;;;;;;;13.18;4.15;;;24.90;97.00;;;;;;5054847;28;20495;-88
2022/06/20 05:46:49;;;;;;;10.95;3.78;;;25.00;97.00;;;;;;5054913;28;20484;-89
2022/06/20 05:49:28;;;;;;;11.88;4.20;;;24.90;97.00;;;;;;5054823;28;20472;-88
2022/06/20 05:51:55;;;;;;;10.30;3.58;;;24.90;96.90;;;;;;5054790;28;20040;-89
2022/06/20 05:54:25;;;;;;;9.68;3.80;;;24.90;97.20;;;;;;5056183;28;20021;-88
2022/06/20 05:57:04;;;;;;;12.48;3.70;;;24.90;96.90;;;;;;5055777;28;20510;-88
2022/06/20 05:59:32;;;;;;;10.30;3.50;;;24.90;96.80;;;;;;5054598;28;20017;-89
2022/06/20 06:02:10;;;;;;;10.32;3.78;;;24.90;96.90;;;;;;5054167;28;20049;-89
2022/06/20 06:04:43;;;;;;;13.65;4.35;;;24.90;96.90;;;;;;5055340;28;20021;-88
2022/06/20 06:07:20;;;;;;;12.57;3.95;;;24.90;96.90;;;;;;5054454;28;20037;-88
2022/06/20 06:09:52;;;;;;;10.52;3.67;;;24.90;96.70;;;;;;5054379;28;20128;-88
2022/06/20 06:12:30;;;;;;;6.55;3.22;;;24.90;96.80;;;;;;5054545;28;20025;-88
2022/06/20 06:15:05;;;;;;;11.15;3.58;;;24.90;96.90;;;;;;5054385;28;20033;-89
2022/06/20 06:17:41;;;;;;;13.18;3.97;;;24.90;96.80;;;;;;5055252;28;20067;-90
2022/06/20 06:20:20;;;;;;;10.75;3.78;;;24.90;96.90;;;;;;5054032;28;20028;-89
2022/06/20 06:22:51;;;;;;;11.65;3.75;;;24.90;96.90;;;;;;5053993;28;20506;-89
2022/06/20 06:25:30;;;;;;;11.88;4.05;;;24.90;97.00;;;;;;5053871;28;20021;-89
2022/06/20 06:27:59;;;;;;;8.13;3.38;;;25.00;97.00;;;;;;5053873;28;20025;-89
2022/06/20 06:30:40;;;;;;;13.18;3.97;;;25.00;97.00;;;;;;5054243;28;20154;-90
2022/06/20 06:33:43;;;;;;;10.32;3.42;;;24.90;97.00;;;;;;5053856;28;20392;-89
2022/06/20 06:36:32;;;;;;;10.48;3.85;;;24.90;97.00;;;;;;5052065;28;20037;-89
2022/06/20 06:39:28;;;;;;;8.32;3.67;;;24.90;97.00;;;;;;5053795;28;20162;-89
2022/06/20 06:41:57;;;;;;;7.55;3.40;;;24.90;97.00;;;;;;5053850;28;20107;-89
2022/06/20 06:44:35;;;;;;;13.05;4.00;;;24.90;97.00;;;;;;5053914;28;20115;-89
2022/06/20 06:47:02;;;;;;;13.07;3.95;;;25.00;97.20;;;;;;5053748;28;20017;-89
2022/06/20 06:49:47;;;;;;;9.10;3.42;;;24.90;97.30;;;;;;5053660;28;20029;-89
2022/06/20 06:52:31;;;;;;;12.60;4.32;;;25.00;97.20;;;;;;5054793;28;20476;-89
2022/06/20 06:55:03;;;;;;;12.98;4.18;;;25.00;97.40;;;;;;5053473;28;20383;-88
2022/06/20 06:57:43;;;;;;;10.13;3.63;;;24.90;97.30;;;;;;5053468;28;20036;-88
2022/06/20 07:00:20;;;;;;;8.70;3.80;;;24.90;97.40;;;;;;5053331;28;20028;-88
2022/06/20 07:02:53;;;;;;;8.02;3.42;;;24.90;97.40;;;;;;5054505;28;20045;-89
2022/06/20 07:05:56;;;;;;;11.02;3.67;;;24.90;97.30;;;;;;5053248;28;20057;-89
2022/06/20 07:08:26;;;;;;;12.68;3.50;;;24.90;97.40;;;;;;5040885;28;20041;-89
2022/06/20 07:11:10;;;;;;;9.82;3.70;;;25.00;97.40;;;;;;5053251;28;20395;-89
2022/06/20 07:13:40;;;;;;;9.35;3.47;;;25.00;97.10;;;;;;5053189;28;20093;-89
2022/06/20 07:16:20;;;;;;;16.77;4.03;;;25.00;97.10;;;;;;5054359;28;20040;-89
2022/06/20 07:18:50;;;;;;;8.93;3.35;;;25.00;97.10;;;;;;5052957;28;20502;-89
2022/06/20 07:21:19;;;;;;;10.52;3.78;;;25.00;97.00;;;;;;5052979;28;20024;-88
2022/06/20 07:23:49;;;;;;;8.23;3.30;;;25.00;97.00;;;;;;5054407;28;20094;-88
2022/06/20 07:26:17;;;;;;;9.55;3.15;;;25.00;96.80;;;;;;5052752;28;20025;-88
2022/06/20 07:29:11;;;;;;;8.35;3.15;;;25.00;97.00;;;;;;5054019;28;20028;-88
2022/06/20 07:32:03;;;;;;;9.85;3.83;;;25.10;97.00;;;;;;5052655;28;20035;-88
2022/06/20 07:34:38;;;;;;;11.70;3.58;;;25.10;96.90;;;;;;5053107;28;20071;-89
2022/06/20 07:37:17;;;;;;;8.23;3.58;;;25.10;96.90;;;;;;5052993;28;20025;-89
2022/06/20 07:39:46;;;;;;;7.68;3.33;;;25.10;96.70;;;;;;5053059;28;20108;-88
2022/06/20 07:42:38;;;;;;;11.13;3.47;;;25.10;96.60;;;;;;5053886;28;20064;-89
2022/06/20 07:45:28;;;;;;;8.68;3.42;;;25.20;96.50;;;;;;5048823;28;20025;-88
2022/06/20 07:47:58;;;;;;;8.32;2.90;;;25.20;96.50;;;;;;5052600;28;20029;-88
2022/06/20 07:50:42;;;;;;;8.70;3.25;;;25.20;96.40;;;;;;5053732;28;20040;-87
2022/06/20 07:53:24;;;;;;;8.13;3.28;;;25.20;96.30;;;;;;5053756;28;20100;-88
2022/06/20 07:55:56;;;;;;;10.30;3.20;;;25.30;96.20;;;;;;5052293;28;20035;-88
2022/06/20 07:58:35;;;;;;;7.03;3.47;;;25.30;96.20;;;;;;5052283;28;20028;-88
2022/06/20 08:01:09;;;;;;;10.85;3.47;;;25.40;96.10;;;;;;5052091;28;20455;-87
2022/06/20 08:03:38;;;;;;;13.15;3.45;;;25.30;96.00;;;;;;5052185;28;20033;-88
2022/06/20 08:06:21;;;;;;;9.95;2.97;;;25.40;96.00;;;;;;5053641;28;20384;-87
2022/06/20 08:08:52;;;;;;;6.80;3.35;;;25.40;95.90;;;;;;5052086;28;20027;-88
2022/06/20 08:11:40;;;;;;;11.13;3.40;;;25.40;95.90;;;;;;5052147;28;20021;-87
2022/06/20 08:14:22;;;;;;;8.57;3.08;;;25.40;95.80;;;;;;5052147;28;20021;-88
2022/06/20 08:16:53;;;;;;;8.02;3.22;;;25.40;95.70;;;;;;5052876;28;20523;-87
2022/06/20 08:19:18;;;;;;;8.77;3.28;;;25.40;95.60;;;;;;5052046;28;20494;-87
2022/06/20 08:21:53;;;;;;;6.80;3.28;;;25.40;95.60;;;;;;5051893;28;20017;-87
2022/06/20 08:24:46;;;;;;;10.70;3.60;;;25.40;95.80;;;;;;5053300;28;20017;-86
2022/06/20 08:27:30;;;;;;;7.43;3.00;;;25.40;95.40;;;;;;5051995;28;20059;-87
2022/06/20 08:30:15;;;;;;;5.78;2.78;;;25.50;95.40;;;;;;5051985;28;20056;-89
2022/06/20 08:32:57;;;;;;;9.38;3.20;;;25.50;95.40;;;;;;5052507;28;20033;-88
2022/06/20 08:35:47;;;;;;;7.60;3.35;;;25.50;95.30;;;;;;5052021;28;20037;-89
2022/06/20 08:38:16;;;;;;;5.22;2.90;;;25.50;95.30;;;;;;5052003;28;20048;-89
2022/06/20 08:41:23;;;;;;;7.50;3.38;;;25.50;95.20;;;;;;5051875;28;20035;-88
2022/06/20 08:44:19;;;;;;;6.45;2.80;;;25.50;95.20;;;;;;5008193;28;20488;-87
2022/06/20 08:47:06;;;;;;;5.90;2.83;;;25.50;95.20;;;;;;5051721;28;20022;-88
2022/06/20 08:50:06;;;;;;;5.40;3.38;;;25.60;95.10;;;;;;5051847;28;20382;-87
2022/06/20 08:52:50;;;;;;;7.82;3.22;;;25.50;95.10;;;;;;5052490;28;20028;-88
2022/06/20 08:55:16;;;;;;;12.05;3.30;;;25.60;95.00;;;;;;5055850;28;20152;-88
2022/06/20 08:57:50;;;;;;;6.90;3.42;;;25.60;95.00;;;;;;5055612;28;20500;-88
2022/06/20 09:00:36;;;;;;;7.47;3.47;;;25.60;95.00;;;;;;5055667;28;20028;-88
2022/06/20 09:03:27;;;;;;;7.15;2.83;;;25.60;94.90;;;;;;5055052;28;20068;-88
2022/06/20 09:05:53;;;;;;;6.78;2.90;;;25.60;94.90;;;;;;5055746;28;20030;-88
2022/06/20 09:08:52;;;;;;;6.60;3.47;;;25.70;94.90;;;;;;5055710;28;20033;-88
2022/06/20 09:11:42;;;;;;;8.10;2.97;;;25.70;94.80;;;;;;5055819;28;20077;-88
2022/06/20 09:14:31;;;;;;;9.50;3.30;;;25.70;94.80;;;;;;5055706;28;20025;-88
2022/06/20 09:17:22;;;;;;;6.10;2.97;;;25.70;95.10;;;;;;5055502;28;20094;-88
2022/06/20 09:20:15;;;;;;;10.25;2.72;;;25.80;94.70;;;;;;5055749;28;20074;-89
2022/06/20 09:22:51;;;;;;;6.35;3.13;;;25.80;94.70;;;;;;5055647;28;20021;-89
2022/06/20 09:25:33;;;;;;;9.65;3.67;;;25.80;94.60;;;;;;5056613;28;20031;-88
2022/06/20 09:28:32;;;;;;;6.82;2.85;;;25.80;94.60;;;;;;5055369;28;20035;-88
2022/06/20 09:31:29;;;;;;;8.10;3.15;;;25.80;94.50;;;;;;5055322;28;20063;-88
2022/06/20 09:34:04;;;;;;;7.63;3.13;;;25.90;94.50;;;;;;5055089;28;20475;-88
2022/06/20 09:36:50;;;;;;;8.52;3.17;;;25.90;94.40;;;;;;5055037;28;20527;-88
2022/06/20 09:39:34;;;;;;;7.13;3.17;;;25.90;94.40;;;;;;5055872;28;20029;-88
2022/06/20 09:42:08;;;;;;;4.85;2.85;;;25.90;94.40;;;;;;5055228;28;20522;-88
2022/06/20 09:44:59;;;;;;;8.50;3.22;;;25.90;94.40;;;;;;5055042;28;20064;-88
2022/06/20 09:47:50;;;;;;;6.78;2.88;;;25.90;94.40;;;;;;5055016;28;20025;-88
2022/06/20 09:50:19;;;;;;;6.97;3.50;;;25.90;94.30;;;;;;5054918;28;20391;-88
2022/06/20 09:53:15;;;;;;;6.13;2.88;;;25.90;94.30;;;;;;5054934;28;20060;-89
2022/06/20 09:56:13;;;;;;;8.38;3.30;;;25.90;94.30;;;;;;5054384;28;20059;-88
2022/06/20 09:59:21;;;;;;;6.05;3.17;;;25.90;94.20;;;;;;5054733;28;20028;-89
2022/06/20 10:01:56;;;;;;;4.97;3.10;;;25.90;94.20;;;;;;5017569;28;20079;-88
2022/06/20 10:04:30;;;;;;;5.82;3.00;;;25.90;94.20;;;;;;5055286;28;20549;-88
2022/06/20 10:07:14;;;;;;;;;;;25.80;94.10;;;;;;5055079;28;20476;-88
2022/06/20 10:09:57;;;;;;;5.82;2.88;;;25.80;94.10;;;;;;5055909;28;20272;-90
2022/06/20 10:12:54;;;;;;;6.95;3.10;;;25.80;94.10;;;;;;5055885;28;20025;-87
2022/06/20 10:15:32;;;;;;;10.02;3.03;;;25.80;94.00;;;;;;5054418;28;20025;-88
2022/06/20 10:18:04;;;;;;;6.10;3.35;;;25.90;94.00;;;;;;5054321;28;20427;-88
2022/06/20 10:20:52;;;;;;;8.80;2.97;;;25.90;93.90;;;;;;5054394;28;20021;-88
2022/06/20 10:23:33;;;;;;;6.43;3.00;;;26.00;93.90;;;;;;5054254;28;20365;-89
2022/06/20 10:26:34;;;;;;;8.57;3.10;;;26.00;93.80;;;;;;5054392;28;20032;-88
2022/06/20 10:29:15;;;;;;;5.05;3.08;;;26.00;93.70;;;;;;5050110;28;20037;-88
2022/06/20 10:31:42;;;;;;;6.88;3.17;;;26.10;93.70;;;;;;5054331;28;20029;-88
2022/06/20 10:34:20;;;;;;;8.25;2.70;;;26.00;93.70;;;;;;5055929;28;20074;-89
2022/06/20 10:36:57;;;;;;;5.63;2.58;;;26.10;93.70;;;;;;5054188;28;20029;-88
2022/06/20 10:39:49;;;;;;;6.50;2.85;;;26.00;93.60;;;;;;5054039;28;20479;-88
2022/06/20 10:42:34;;;;;;;5.80;2.80;;;26.00;93.70;;;;;;5053817;28;20479;-88
2022/06/20 10:45:31;;;;;;;8.05;2.95;;;26.00;93.60;;;;;;5053963;28;20025;-88
2022/06/20 10:48:21;;;;;;;5.57;2.40;;;26.00;93.60;;;;;;5053873;28;20032;-88
2022/06/20 10:50:58;;;;;;;8.05;2.90;;;26.00;93.50;;;;;;5054992;28;20522;-88
2022/06/20 10:53:46;;;;;;;6.97;2.70;;;26.10;93.50;;;;;;5053712;28;20029;-87
2022/06/20 10:56:42;;;;;;;5.80;2.63;;;26.10;93.30;;;;;;5053676;28;20029;-88
2022/06/20 10:59:14;;;;;;;6.25;2.92;;;26.10;93.20;;;;;;5053538;28;20048;-88
2022/06/20 11:01:45;;;;;;;7.13;2.60;;;26.30;93.20;;;;;;5054737;28;20041;-88
2022/06/20 11:04:31;;;;;;;5.57;2.80;;;26.30;93.20;;;;;;5053603;28;20083;-88
2022/06/20 11:07:10;;;;;;;6.07;2.60;;;26.30;93.20;;;;;;5053579;28;20557;-88
2022/06/20 11:10:01;;;;;;;4.38;2.63;;;26.30;93.10;;;;;;5054743;28;20387;-88
2022/06/20 11:12:38;;;;;;;5.13;2.53;;;26.30;93.00;;;;;;5053552;28;20113;-88
2022/06/20 11:15:24;;;;;;;6.82;2.53;;;26.40;93.00;;;;;;5053537;28;20119;-88
2022/06/20 11:18:11;;;;;;;5.18;2.20;;;26.40;92.90;;;;;;5052412;28;20025;-88
2022/06/20 11:21:09;;;;;;;4.22;2.58;;;26.40;92.80;;;;;;5053384;28;20032;-88
2022/06/20 11:23:54;;;;;;;7.10;3.00;;;26.40;92.70;;;;;;5053121;28;20017;-88
2022/06/20 11:26:36;;;;;;;7.25;2.40;;;26.40;92.70;;;;;;5053131;28;20017;-87
2022/06/20 11:29:20;;;;;;;5.35;2.78;;;26.40;92.60;;;;;;5054267;28;20036;-87
2022/06/20 11:34:44;;;;;;;3.90;1.98;;;26.50;92.70;;;;;;5214315;22;20552;-85
2022/06/20 11:37:40;;;;;;;6.93;3.00;;;26.40;92.70;;;;;;5049608;28;20032;-85
2022/06/20 11:40:13;;;;;;;6.55;2.28;;;26.40;92.70;;;;;;5034486;28;20030;-86
2022/06/20 11:43:07;;;;;;;4.85;2.40;;;26.30;92.70;;;;;;5032761;28;20138;-86
2022/06/20 11:45:57;;;;;;;6.25;2.47;;;26.30;92.70;;;;;;5032639;28;20113;-86
2022/06/20 11:48:47;;;;;;;6.88;2.50;;;26.30;92.80;;;;;;5032630;28;20037;-86
2022/06/20 11:51:49;;;;;;;4.28;2.20;;;26.30;92.90;;;;;;5032614;28;20034;-85
2022/06/20 11:54:36;;;;;;;5.07;2.45;;;26.30;92.90;;;;;;5032650;28;20048;-86
2022/06/20 11:57:30;;;;;;;4.53;2.20;;;26.30;92.90;;;;;;5032424;28;20480;-86
2022/06/20 12:00:20;;;;;;;6.75;2.45;;;26.30;92.90;;;;;;5032549;28;20025;-86
2022/06/20 12:02:56;;;;;;;3.67;2.30;;;26.30;92.90;;;;;;5032527;28;20018;-86
2022/06/20 12:05:30;;;;;;;3.75;2.22;;;26.40;92.90;;;;;;5032889;28;20025;-86
2022/06/20 12:08:08;;;;;;;4.63;2.30;;;26.40;92.90;;;;;;5032261;28;20513;-87
2022/06/20 12:10:47;;;;;;;4.25;2.22;;;26.40;92.90;;;;;;5033543;28;20104;-86
2022/06/20 12:13:31;;;;;;;5.78;2.40;;;26.30;92.90;;;;;;5032421;28;20026;-86
2022/06/20 12:16:02;;;;;;;4.90;2.38;;;26.30;93.00;;;;;;5032205;28;20053;-86
2022/06/20 12:18:34;;;;;;;4.97;1.67;;;26.30;93.00;;;;;;5032057;28;20526;-86
2022/06/20 12:23:56;;;;;;;5.82;1.80;;;26.20;93.10;;;;;;5033901;28;20546;-86
2022/06/20 12:26:35;;;;;;;8.10;2.15;;;26.10;93.10;;;;;;5032617;28;20024;-86
2022/06/20 12:29:05;;;;;;;3.47;2.20;;;26.10;93.10;;;;;;5033066;28;20072;-86
2022/06/20 12:31:38;;;;;;;3.97;1.60;;;26.10;93.10;;;;;;5032527;28;20121;-86
2022/06/20 12:34:22;;;;;;;3.85;2.40;;;26.10;93.20;;;;;;5031985;28;20078;-86
2022/06/20 12:37:12;;;;;;;3.33;1.67;;;26.10;93.20;;;;;;5032259;28;20092;-87
2022/06/20 12:39:50;;;;;;;4.38;1.73;;;26.10;93.20;;;;;;5033851;28;20033;-86
2022/06/20 12:42:31;;;;;;;3.85;1.80;;;26.10;93.10;;;;;;5032083;28;20028;-86
2022/06/20 12:45:12;;;;;;;3.17;1.70;;;26.10;93.10;;;;;;5032039;28;20017;-86
2022/06/20 12:47:44;;;;;;;2.60;1.90;;;26.10;93.10;;;;;;5031876;28;20120;-86
2022/06/20 12:50:42;;;;;;;4.13;2.05;;;26.20;93.00;;;;;;5032035;28;20491;-86
2022/06/20 12:53:26;;;;;;;5.85;1.90;;;26.20;93.00;;;;;;5009245;28;20042;-86
2022/06/20 12:56:20;;;;;;;6.55;2.13;;;26.20;93.00;;;;;;5033878;28;20056;-86
2022/06/20 12:59:30;;;;;;;5.78;1.85;;;26.20;93.00;;;;;;5032113;28;20120;-86
2022/06/20 13:02:11;;;;;;;3.55;1.73;;;26.20;93.00;;;;;;5033191;28;20498;-86
2022/06/20 13:04:42;;;;;;;3.65;1.80;;;26.20;92.90;;;;;;5032032;28;20059;-87
2022/06/20 13:07:31;;;;;;;5.65;2.05;;;26.20;92.90;;;;;;5031951;28;20026;-86
2022/06/20 13:10:05;;;;;;;3.25;1.60;;;26.20;92.90;;;;;;5031702;28;20057;-86
2022/06/20 13:12:49;;;;;;;;;;;26.20;92.90;;;;;;5032334;28;20514;-86
2022/06/20 13:16:17;;;;;;;5.63;1.63;;;26.20;92.80;;;;;;5031799;28;19905;-86
2022/06/20 13:19:03;;;;;;;6.25;2.00;;;26.30;92.80;;;;;;4953154;29;20038;-86
2022/06/20 13:21:42;;;;;;;9.77;2.03;;;26.40;92.80;;;;;;5041955;28;20029;-87
2022/06/20 13:24:14;;;;;;;5.72;2.10;;;26.40;92.80;;;;;;5032124;28;20029;-87
2022/06/20 13:26:53;;;;;;;7.20;1.83;;;26.60;92.70;;;;;;5031884;28;20053;-87
2022/06/20 13:29:31;;;;;;;5.53;2.00;;;26.70;92.70;;;;;;5031738;28;20083;-87
2022/06/20 13:32:08;;;;;;;7.10;2.00;;;26.60;92.70;;;;;;5031517;28;20108;-86
2022/06/20 13:34:58;;;;;;;4.28;2.22;;;26.60;92.90;;;;;;5031271;28;20045;-86
2022/06/20 13:38:09;;;;;;;3.47;1.80;;;26.40;93.10;;;;;;5032698;28;20025;-86
2022/06/20 13:41:00;;;;;;;5.68;2.05;;;26.40;93.60;;;;;;4973991;28;20502;-86
2022/06/20 13:43:47;;;;;;;6.88;1.80;;;26.30;93.30;;;;;;4975496;28;20031;-86
2022/06/20 13:46:24;;;;;;;7.82;1.85;;;26.20;93.50;;;;;;5022180;28;20025;-87
2022/06/20 13:49:04;;;;;;;3.28;1.70;;;26.20;93.50;;;;;;5035027;28;20026;-86
2022/06/20 13:51:38;;;;;;;7.95;2.40;;;26.20;93.50;;;;;;5034858;28;20025;-86